createdAt,value
2023-05-22T00:00:33.207Z,23.1
2023-05-22T00:15:33.731Z,23.0
2023-05-22T00:30:32.881Z,23
2023-05-22T00:45:33.423Z,22.9
2023-05-22T01:00:33.277Z,22.9
2023-05-22T01:15:33.571Z,22.8
2023-05-22T01:30:33.626Z,22.8
2023-05-22T01:45:33.810Z,22.7
2023-05-22T02:00:34.222Z,22.7
2023-05-22T02:15:33.487Z,22.7
2023-05-22T02:30:33.608Z,22.7
2023-05-22T02:45:33.516Z,22.6
2023-05-22T03:00:32.978Z,22.6
2023-05-22T03:15:33.028Z,22.5
2023-05-22T03:30:33.227Z,22.5
2023-05-22T03:45:33.279Z,22.5
2023-05-22T04:00:34.113Z,22.5
2023-05-22T04:15:33.085Z,22.4
2023-05-22T04:30:33.421Z,22.4
2023-05-22T04:45:33.341Z,22.4
2023-05-22T05:00:33.616Z,22.4
2023-05-22T05:15:33.493Z,22.4
2023-05-22T05:30:34.162Z,22.4
2023-05-22T05:45:33.341Z,22.6
2023-05-22T06:00:33.270Z,22.6
2023-05-22T06:15:33.380Z,22.8
2023-05-22T06:30:39.855Z,22.8
2023-05-22T06:45:34.408Z,23.0
2023-05-22T07:00:33.476Z,23.1
2023-05-22T07:15:33.426Z,23.2
2023-05-22T17:45:33.345Z,26.6
2023-05-22T18:00:33.854Z,26.5
2023-05-22T18:15:34.160Z,26.5
2023-05-22T18:30:34.608Z,26.4
2023-05-22T18:45:33.296Z,26.3
2023-05-22T19:00:35.862Z,26.2
2023-05-22T19:15:33.150Z,26.1
2023-05-22T19:30:33.275Z,26.0
2023-05-22T19:45:33.599Z,25.9
2023-05-22T20:00:34.469Z,25.7
2023-05-22T20:15:33.169Z,25.7
2023-05-22T20:30:34.220Z,25.6
2023-05-22T20:45:33.151Z,25.5
2023-05-22T21:00:33.425Z,25.4
2023-05-22T21:15:33.692Z,25.3
2023-05-22T21:30:33.130Z,25.2
2023-05-22T21:45:33.305Z,25.1
2023-05-22T22:00:33.337Z,25.1
2023-05-22T22:15:33.261Z,25.0
2023-05-22T22:30:33.170Z,24.9
2023-05-22T22:45:33.711Z,24.8
2023-05-22T23:00:33.378Z,24.7
2023-05-22T23:15:33.473Z,24.6
2023-05-22T23:30:33.905Z,24.5
2023-05-22T23:45:33.094Z,24.5
